Time;durP1;ratioP1;P1;durP2;ratioP2;P2;SDS_P1;SDS_P2;PMS_P1;PMS_P2;Temp;Humidity;BMP_temperature;BMP_pressure;BME280_temperature;BME280_humidity;BME280_pressure;Samples;Min_cycle;Max_cycle;Signal;HPM_P1;HPM_P2
2022/03/17 00:02:16;;;;;;;7.53;2.40;;;24.10;99.90;;;;;;4930859;29;20543;-70
2022/03/17 00:04:45;;;;;;;6.88;1.83;;;24.20;99.90;;;;;;4916504;29;20024;-68
2022/03/17 00:07:16;;;;;;;11.15;2.85;;;24.30;99.90;;;;;;4916262;29;20552;-71
2022/03/17 00:09:44;;;;;;;13.05;3.05;;;24.40;99.90;;;;;;4916854;29;20048;-71
2022/03/17 00:12:13;;;;;;;6.72;2.72;;;24.50;99.90;;;;;;4916615;29;20134;-73
2022/03/17 00:14:41;;;;;;;10.52;2.22;;;24.50;99.90;;;;;;4899214;29;20408;-70
2022/03/17 00:17:08;;;;;;;8.40;1.95;;;24.50;99.90;;;;;;4931255;29;20628;-69
2022/03/17 00:19:36;;;;;;;12.55;2.13;;;24.50;99.90;;;;;;4916539;29;20043;-69
2022/03/17 00:22:09;;;;;;;7.22;1.80;;;24.40;99.90;;;;;;4915560;29;20028;-70
2022/03/17 00:24:38;;;;;;;;;;;24.50;99.90;;;;;;4914832;29;20039;-70
2022/03/17 00:27:08;;;;;;;8.70;2.22;;;24.50;99.90;;;;;;4920364;29;19906;-68
2022/03/17 00:29:38;;;;;;;7.47;1.88;;;24.60;99.90;;;;;;4934908;29;20043;-70
2022/03/17 00:32:07;;;;;;;10.10;2.13;;;24.60;99.90;;;;;;4932101;29;20031;-68
2022/03/17 00:35:35;;;;;;;9.27;2.10;;;24.70;99.90;;;;;;4915801;29;20111;-69
2022/03/17 00:37:26;;;;;;;7.18;1.80;;;24.80;99.90;;;;;;4901213;29;20087;-68
2022/03/17 00:39:54;;;;;;;10.52;2.25;;;24.90;99.90;;;;;;4915105;29;20028;-69
2022/03/17 00:42:27;;;;;;;9.23;3.03;;;24.90;99.90;;;;;;4915203;29;20048;-69
2022/03/17 00:44:55;;;;;;;9.40;1.80;;;25.00;99.90;;;;;;4915058;29;20043;-71
2022/03/17 00:47:23;;;;;;;11.40;2.47;;;25.10;99.90;;;;;;4897638;29;20122;-69
2022/03/17 00:49:50;;;;;;;7.80;2.08;;;25.20;99.90;;;;;;4914169;29;20079;-69
2022/03/17 00:52:20;;;;;;;10.30;2.40;;;25.30;99.90;;;;;;4915096;29;20481;-68
2022/03/17 00:54:48;;;;;;;6.28;1.50;;;25.40;99.90;;;;;;4897873;29;20112;-69
2022/03/17 00:57:16;;;;;;;8.90;1.70;;;25.50;99.90;;;;;;4915327;29;20058;-70
2022/03/17 00:59:43;;;;;;;5.63;1.60;;;25.60;99.90;;;;;;4897800;29;20074;-69
2022/03/17 01:02:11;;;;;;;7.90;2.08;;;25.80;99.90;;;;;;4914798;29;20044;-69
2022/03/17 01:04:39;;;;;;;9.73;1.80;;;25.90;99.90;;;;;;4915380;29;20039;-68
2022/03/17 01:07:13;;;;;;;6.45;2.13;;;26.00;99.90;;;;;;4898890;29;20032;-70
2022/03/17 01:09:41;;;;;;;5.75;1.63;;;26.20;99.90;;;;;;4914109;29;20036;-73
2022/03/17 01:12:09;;;;;;;8.90;1.23;;;26.40;99.90;;;;;;4914746;29;20017;-68
2022/03/17 01:14:39;;;;;;;6.50;1.67;;;26.60;99.90;;;;;;4914925;29;20032;-70
2022/03/17 01:17:07;;;;;;;8.13;1.70;;;26.80;99.90;;;;;;4897995;29;20045;-70
2022/03/17 01:19:35;;;;;;;5.95;1.50;;;26.70;99.90;;;;;;4913659;29;20103;-70
2022/03/17 01:22:03;;;;;;;3.95;1.48;;;26.70;99.90;;;;;;4914263;29;20036;-69
2022/03/17 01:24:31;;;;;;;6.30;2.08;;;26.70;99.90;;;;;;4914908;29;20020;-68
2022/03/17 01:26:58;;;;;;;8.32;2.47;;;26.60;99.90;;;;;;4917904;29;20032;-70
2022/03/17 01:29:26;;;;;;;7.22;1.70;;;26.40;99.90;;;;;;4934237;29;20031;-70
2022/03/17 01:31:54;;;;;;;6.78;2.05;;;26.40;99.90;;;;;;4924446;29;20493;-70
2022/03/17 01:34:22;;;;;;;10.13;1.80;;;26.60;99.90;;;;;;4915389;29;20053;-69
2022/03/17 01:36:50;;;;;;;8.85;2.28;;;26.80;99.90;;;;;;4898023;29;20028;-67
2022/03/17 01:39:17;;;;;;;11.82;2.03;;;27.00;99.90;;;;;;4914829;29;20024;-69
2022/03/17 01:41:45;;;;;;;6.68;1.88;;;26.90;99.90;;;;;;4914343;29;20021;-73
2022/03/17 01:44:12;;;;;;;11.10;2.60;;;26.90;99.90;;;;;;4914678;29;20049;-70
2022/03/17 01:49:27;;;;;;;8.50;2.15;;;26.70;99.90;;;;;;4914648;29;20110;-69
2022/03/17 01:51:54;;;;;;;6.47;1.40;;;27.00;99.90;;;;;;4914379;29;20024;-70
2022/03/17 01:54:24;;;;;;;8.68;2.92;;;27.40;99.90;;;;;;4914532;29;20032;-69
2022/03/17 01:56:53;;;;;;;10.32;2.00;;;27.60;99.90;;;;;;4914947;29;20152;-69
2022/03/17 01:59:21;;;;;;;8.90;1.63;;;27.70;99.90;;;;;;4914916;29;20103;-69
2022/03/17 02:01:49;;;;;;;7.75;1.45;;;27.60;99.90;;;;;;4914196;29;20032;-68
2022/03/17 02:04:17;;;;;;;10.80;2.45;;;27.90;99.90;;;;;;4914573;29;20073;-70
2022/03/17 02:06:45;;;;;;;6.88;2.10;;;28.10;99.90;;;;;;4898239;29;20020;-70
2022/03/17 02:09:12;;;;;;;5.32;1.73;;;28.10;99.90;;;;;;4917301;29;20043;-72
2022/03/17 02:14:30;;;;;;;8.00;1.98;;;28.40;99.90;;;;;;4918010;29;20083;-72
2022/03/17 02:17:02;;;;;;;8.60;1.83;;;28.60;99.90;;;;;;4917846;29;20032;-70
2022/03/17 02:19:31;;;;;;;9.18;1.88;;;28.70;99.90;;;;;;4917958;29;20051;-72
2022/03/17 02:21:58;;;;;;;6.18;2.00;;;28.80;99.90;;;;;;4922030;29;20020;-71
2022/03/17 02:27:12;;;;;;;5.18;1.33;;;28.60;99.90;;;;;;4926687;29;20031;-74
2022/03/17 02:29:39;;;;;;;9.63;1.88;;;28.70;99.90;;;;;;4932992;29;20036;-72
2022/03/17 02:32:09;;;;;;;11.35;3.00;;;28.80;99.90;;;;;;4925776;29;20393;-73
2022/03/17 02:34:38;;;;;;;8.85;1.83;;;28.90;99.90;;;;;;4917463;29;20032;-71
2022/03/17 02:37:05;;;;;;;6.53;1.38;;;29.10;99.90;;;;;;4917184;29;20060;-68
2022/03/17 02:39:33;;;;;;;9.02;2.30;;;29.00;99.90;;;;;;4917409;29;20032;-73
2022/03/17 02:42:00;;;;;;;9.38;2.00;;;29.30;99.90;;;;;;4917229;29;20024;-73
2022/03/17 02:44:27;;;;;;;11.73;1.55;;;29.40;98.90;;;;;;4917227;29;20035;-75
2022/03/17 02:46:54;;;;;;;8.57;1.15;;;29.40;99.00;;;;;;4917169;29;20043;-72
2022/03/17 02:49:22;;;;;;;7.20;1.33;;;29.50;99.90;;;;;;4916949;29;20044;-72
2022/03/17 02:51:49;;;;;;;10.32;1.98;;;29.70;98.30;;;;;;4916198;29;20039;-71
2022/03/17 02:54:16;;;;;;;8.93;1.58;;;29.90;98.30;;;;;;4916599;29;20024;-70
2022/03/17 02:56:44;;;;;;;11.20;2.95;;;30.10;98.30;;;;;;4916501;29;20028;-71
2022/03/17 02:59:11;;;;;;;8.02;1.35;;;30.20;98.20;;;;;;4916896;29;20052;-70
2022/03/17 03:01:39;;;;;;;7.22;1.40;;;30.50;97.60;;;;;;4917446;29;20032;-70
2022/03/17 03:04:07;;;;;;;11.43;2.28;;;30.80;97.20;;;;;;4917059;29;20476;-71
2022/03/17 03:06:35;;;;;;;4.75;1.52;;;31.10;96.60;;;;;;4917335;29;20059;-71
2022/03/17 03:09:02;;;;;;;6.35;1.17;;;31.40;96.90;;;;;;4916283;29;20506;-74
2022/03/17 03:11:29;;;;;;;7.68;1.60;;;31.50;96.00;;;;;;4925316;29;20686;-73
2022/03/17 03:13:56;;;;;;;9.88;2.03;;;31.40;95.10;;;;;;4933486;29;20023;-68
2022/03/17 03:16:24;;;;;;;7.07;1.95;;;31.50;95.30;;;;;;4935892;29;20102;-72
2022/03/17 03:18:52;;;;;;;11.02;2.05;;;31.50;95.50;;;;;;4934890;29;20104;-68
2022/03/17 03:21:19;;;;;;;9.60;1.85;;;31.50;94.60;;;;;;4935621;29;20035;-70
2022/03/17 03:23:47;;;;;;;11.38;2.17;;;31.20;95.10;;;;;;4935147;29;20055;-69
2022/03/17 03:26:14;;;;;;;8.15;1.95;;;31.40;94.60;;;;;;4935466;29;20031;-71
2022/03/17 03:28:41;;;;;;;6.03;1.60;;;31.70;94.90;;;;;;4919008;29;20044;-70
2022/03/17 03:31:09;;;;;;;8.73;1.95;;;32.00;94.20;;;;;;4917208;29;20490;-71
2022/03/17 03:33:36;;;;;;;6.45;2.08;;;32.50;93.40;;;;;;4916595;29;20481;-69
2022/03/17 03:38:50;;;;;;;5.47;1.40;;;33.10;92.70;;;;;;4916817;29;20519;-70
2022/03/17 03:41:17;;;;;;;6.45;1.83;;;33.10;92.00;;;;;;4916716;29;20059;-69
2022/03/17 03:43:45;;;;;;;5.35;1.38;;;32.90;91.70;;;;;;4916131;29;20051;-68
2022/03/17 03:46:12;;;;;;;8.18;2.10;;;32.30;91.90;;;;;;4916458;29;20052;-68
2022/03/17 03:48:39;;;;;;;9.07;1.85;;;32.10;93.00;;;;;;4915731;29;20040;-69
2022/03/17 03:51:07;;;;;;;8.20;1.77;;;32.30;92.80;;;;;;4915957;29;20038;-69
2022/03/17 03:56:19;;;;;;;6.63;1.50;;;32.80;92.20;;;;;;4916568;29;20083;-69
2022/03/17 03:58:47;;;;;;;7.93;1.50;;;32.60;92.10;;;;;;4916500;29;20028;-68
2022/03/17 04:01:14;;;;;;;9.68;1.63;;;32.60;92.10;;;;;;4915940;29;20028;-69
2022/03/17 04:03:42;;;;;;;11.45;2.05;;;32.30;92.20;;;;;;4918322;29;20035;-71
2022/03/17 04:06:09;;;;;;;8.43;2.08;;;32.10;92.20;;;;;;4924551;29;20054;-69
2022/03/17 04:08:37;;;;;;;6.65;2.15;;;32.00;92.80;;;;;;4926526;29;20063;-68
2022/03/17 04:11:04;;;;;;;5.40;1.25;;;31.80;92.60;;;;;;4906603;29;20023;-71
2022/03/17 04:13:31;;;;;;;8.13;2.10;;;31.80;93.80;;;;;;4920829;29;20032;-72
2022/03/17 04:15:58;;;;;;;8.90;2.08;;;32.00;93.20;;;;;;4921212;29;20020;-70
2022/03/17 04:18:26;;;;;;;6.70;1.77;;;31.90;92.60;;;;;;4923484;29;20070;-70
2022/03/17 04:20:53;;;;;;;8.57;1.52;;;31.90;92.80;;;;;;4928278;29;20028;-70
2022/03/17 04:23:20;;;;;;;10.63;2.00;;;31.80;93.10;;;;;;4921384;29;20075;-75
2022/03/17 04:25:48;;;;;;;11.98;2.20;;;31.50;93.30;;;;;;4914704;29;20035;-70
2022/03/17 04:28:15;;;;;;;8.15;1.75;;;31.60;93.50;;;;;;4927094;29;20023;-70
2022/03/17 04:30:42;;;;;;;6.15;1.27;;;31.50;93.60;;;;;;4934205;29;20588;-67
2022/03/17 04:33:10;;;;;;;6.25;1.90;;;31.40;93.60;;;;;;4923270;29;20500;-69
2022/03/17 04:35:37;;;;;;;5.22;1.58;;;31.30;93.50;;;;;;4915057;29;20043;-75
2022/03/17 04:38:04;;;;;;;10.07;2.00;;;31.10;93.90;;;;;;4915015;29;20028;-70
2022/03/17 04:40:31;;;;;;;5.25;1.45;;;30.90;94.40;;;;;;4925448;29;20404;-69
2022/03/17 04:42:59;;;;;;;9.15;1.70;;;30.90;94.80;;;;;;4935309;29;20034;-70
2022/03/17 04:45:26;;;;;;;9.25;2.35;;;30.90;94.30;;;;;;4933899;29;20026;-71
2022/03/17 04:47:54;;;;;;;9.93;3.03;;;30.70;94.30;;;;;;4929677;29;20118;-68
2022/03/17 04:50:21;;;;;;;5.85;2.08;;;30.40;94.50;;;;;;4938531;29;20028;-70
2022/03/17 04:55:34;;;;;;;6.78;1.92;;;30.00;95.30;;;;;;4934182;29;20110;-69
2022/03/17 04:58:01;;;;;;;8.20;2.45;;;29.60;96.20;;;;;;4933491;29;20028;-69
2022/03/17 05:00:28;;;;;;;6.60;1.73;;;29.30;95.90;;;;;;4933685;29;20029;-71
2022/03/17 05:02:56;;;;;;;5.45;2.72;;;29.40;96.80;;;;;;4925144;29;20117;-69
2022/03/17 05:05:23;;;;;;;6.85;1.80;;;29.50;95.90;;;;;;4915318;29;20036;-71
2022/03/17 05:07:56;;;;;;;5.80;1.45;;;29.50;96.30;;;;;;4920112;29;20074;-69
2022/03/17 05:10:24;;;;;;;8.60;1.63;;;29.60;96.10;;;;;;4934026;29;20034;-72
2022/03/17 05:12:51;;;;;;;6.75;1.58;;;29.70;96.10;;;;;;4925697;29;20028;-69
2022/03/17 05:15:18;;;;;;;9.45;1.30;;;29.60;95.80;;;;;;4914832;29;20020;-72
2022/03/17 05:17:47;;;;;;;4.03;1.13;;;29.50;96.60;;;;;;4914827;29;20024;-68
2022/03/17 05:20:14;;;;;;;10.15;1.30;;;29.50;96.50;;;;;;4914826;29;20396;-72
2022/03/17 05:22:43;;;;;;;4.60;1.13;;;29.40;96.80;;;;;;4897443;29;20028;-69
2022/03/17 05:25:13;;;;;;;10.18;1.77;;;29.40;96.80;;;;;;4914848;29;20418;-69
2022/03/17 05:27:42;;;;;;;9.10;1.90;;;29.20;96.60;;;;;;4906405;29;20027;-73
2022/03/17 05:30:15;;;;;;;10.63;1.63;;;29.00;96.90;;;;;;4933700;29;20042;-70
2022/03/17 05:32:46;;;;;;;9.13;1.58;;;28.80;97.30;;;;;;4926634;29;20040;-72
2022/03/17 05:35:16;;;;;;;4.93;1.20;;;28.80;97.70;;;;;;4914918;29;20481;-73
2022/03/17 05:37:44;;;;;;;7.15;1.20;;;28.60;98.10;;;;;;4916519;29;20048;-71
2022/03/17 05:40:17;;;;;;;6.68;2.08;;;28.60;98.20;;;;;;4920428;29;20491;-69
2022/03/17 05:42:54;;;;;;;5.93;1.10;;;28.50;98.20;;;;;;4925981;29;20012;-74
2022/03/17 05:45:23;;;;;;;5.15;1.10;;;28.40;97.50;;;;;;4937539;29;20032;-71
2022/03/17 05:47:51;;;;;;;4.97;1.35;;;28.20;97.90;;;;;;4937635;29;20027;-69
2022/03/17 05:50:21;;;;;;;5.43;1.27;;;28.10;97.90;;;;;;4914311;29;20485;-71
2022/03/17 05:52:49;;;;;;;6.05;1.42;;;27.90;98.10;;;;;;4929633;29;20051;-70
2022/03/17 05:55:19;;;;;;;6.50;1.33;;;27.80;98.20;;;;;;4901988;29;20107;-69
2022/03/17 05:57:49;;;;;;;8.82;1.50;;;27.60;98.50;;;;;;4918126;29;20031;-68
2022/03/17 06:00:18;;;;;;;3.47;1.00;;;27.50;98.40;;;;;;4918185;29;20064;-68
2022/03/17 06:02:46;;;;;;;5.68;1.15;;;27.30;98.90;;;;;;4921640;29;20047;-71
2022/03/17 06:05:15;;;;;;;8.60;1.40;;;27.20;98.80;;;;;;4937013;29;20031;-68
2022/03/17 06:07:45;;;;;;;8.30;1.10;;;27.10;98.90;;;;;;4920886;29;20055;-69
2022/03/17 06:10:23;;;;;;;8.13;1.38;;;27.10;99.10;;;;;;4934970;29;21539;-75
2022/03/17 06:12:53;;;;;;;5.03;1.20;;;26.90;99.50;;;;;;4913758;29;20119;-74
2022/03/17 06:15:22;;;;;;;6.15;1.25;;;26.80;99.90;;;;;;4937619;29;20031;-72
2022/03/17 06:17:52;;;;;;;7.13;1.20;;;26.70;99.90;;;;;;4936903;29;20095;-73
2022/03/17 06:20:22;;;;;;;5.85;1.35;;;26.60;99.90;;;;;;4936067;29;20034;-73
2022/03/17 06:22:52;;;;;;;6.82;1.40;;;26.50;99.90;;;;;;4927595;29;20088;-78
2022/03/17 06:25:21;;;;;;;5.88;1.92;;;26.40;99.90;;;;;;4917670;29;20042;-71
2022/03/17 06:27:50;;;;;;;5.35;1.20;;;26.30;99.90;;;;;;4927420;29;20054;-76
2022/03/17 06:30:25;;;;;;;6.85;2.17;;;26.20;99.90;;;;;;4919352;29;20105;-74
2022/03/17 06:32:54;;;;;;;5.80;1.52;;;26.20;99.90;;;;;;4919977;29;20046;-74
2022/03/17 06:35:29;;;;;;;7.35;1.17;;;26.30;99.90;;;;;;4930802;29;20036;-73
2022/03/17 06:38:02;;;;;;;6.93;2.75;;;26.30;99.90;;;;;;4911224;29;20111;-77
2022/03/17 06:40:35;;;;;;;4.15;1.52;;;26.20;99.90;;;;;;4932789;29;20396;-77
2022/03/17 06:43:03;;;;;;;4.60;1.23;;;26.30;99.90;;;;;;4927476;29;20027;-77
2022/03/17 06:45:31;;;;;;;7.93;1.38;;;26.40;99.90;;;;;;4904277;29;20150;-75
2022/03/17 06:48:00;;;;;;;5.53;1.75;;;26.40;99.90;;;;;;4919064;29;20035;-75
2022/03/17 06:50:28;;;;;;;7.78;1.20;;;26.50;99.90;;;;;;4935945;29;20082;-71
2022/03/17 06:52:56;;;;;;;7.65;1.00;;;26.60;99.90;;;;;;4926549;29;20724;-72
2022/03/17 06:55:23;;;;;;;7.22;1.50;;;26.70;99.90;;;;;;4917888;29;20036;-74
2022/03/17 06:57:51;;;;;;;4.70;1.05;;;26.80;99.90;;;;;;4917108;29;20021;-75
2022/03/17 07:00:19;;;;;;;5.72;1.20;;;26.90;99.90;;;;;;4930857;29;20027;-72
2022/03/17 07:02:47;;;;;;;6.55;1.50;;;27.10;99.90;;;;;;4929121;29;20080;-73
2022/03/17 07:05:15;;;;;;;10.23;1.23;;;27.10;99.90;;;;;;4936492;29;20027;-76
2022/03/17 07:07:43;;;;;;;7.13;1.40;;;27.10;99.90;;;;;;4938265;29;20362;-70
2022/03/17 07:10:17;;;;;;;5.57;1.00;;;27.00;99.90;;;;;;4937479;29;20031;-71
2022/03/17 07:13:06;;;;;;;4.07;1.02;;;26.80;99.90;;;;;;4913481;29;20110;-75
2022/03/17 07:15:34;;;;;;;5.55;1.05;;;26.60;99.90;;;;;;4917741;29;20440;-72
2022/03/17 07:18:05;;;;;;;5.78;1.40;;;26.30;99.90;;;;;;4926899;29;20051;-71
2022/03/17 07:20:35;;;;;;;9.60;1.10;;;26.30;99.90;;;;;;4926325;29;20020;-75
2022/03/17 07:23:07;;;;;;;5.63;1.08;;;26.30;99.90;;;;;;4923357;29;20020;-74
2022/03/17 07:25:34;;;;;;;7.03;1.23;;;26.10;99.90;;;;;;4936121;29;20101;-73
2022/03/17 07:28:01;;;;;;;7.55;1.42;;;26.00;99.90;;;;;;4924094;29;20043;-77
2022/03/17 07:30:31;;;;;;;4.60;1.20;;;25.90;99.90;;;;;;4932169;29;20032;-71
2022/03/17 07:32:59;;;;;;;4.95;1.10;;;25.80;99.90;;;;;;4935256;29;20050;-71
2022/03/17 07:35:27;;;;;;;4.30;1.42;;;25.70;99.90;;;;;;4922314;29;20043;-72
2022/03/17 07:37:54;;;;;;;6.30;1.20;;;25.60;99.90;;;;;;4915672;29;20028;-70
2022/03/17 07:40:22;;;;;;;8.65;2.15;;;25.50;99.90;;;;;;4924621;29;20682;-72
2022/03/17 07:42:49;;;;;;;8.25;3.25;;;25.50;99.90;;;;;;4890759;29;20029;-74
2022/03/17 07:45:17;;;;;;;6.57;2.17;;;25.30;99.90;;;;;;4924467;29;20381;-70
2022/03/17 07:47:49;;;;;;;6.38;1.88;;;25.30;99.90;;;;;;4924870;29;20108;-74
2022/03/17 07:50:18;;;;;;;7.07;1.25;;;25.20;99.90;;;;;;4928669;29;20444;-75
2022/03/17 07:52:46;;;;;;;6.70;1.23;;;25.10;99.90;;;;;;4909909;29;20048;-70
2022/03/17 07:55:13;;;;;;;4.50;1.20;;;25.10;99.90;;;;;;4899093;29;20028;-70
2022/03/17 07:57:42;;;;;;;9.23;2.47;;;25.00;99.90;;;;;;4898882;29;20525;-73
2022/03/17 08:00:13;;;;;;;12.68;1.60;;;24.90;99.90;;;;;;4912187;29;20043;-71
2022/03/17 08:02:41;;;;;;;6.78;1.50;;;24.90;99.90;;;;;;4928417;29;20016;-69
2022/03/17 08:05:09;;;;;;;8.48;1.80;;;24.80;99.90;;;;;;4915924;29;20028;-68
2022/03/17 08:07:37;;;;;;;8.95;1.55;;;24.80;99.90;;;;;;4916203;29;20390;-76
2022/03/17 08:10:05;;;;;;;8.63;1.73;;;24.80;99.90;;;;;;4928432;29;20048;-69
2022/03/17 08:12:34;;;;;;;6.72;1.50;;;24.70;99.90;;;;;;4932795;29;20495;-76
2022/03/17 08:15:07;;;;;;;10.25;2.03;;;24.60;99.90;;;;;;4917629;29;20031;-72
2022/03/17 08:17:35;;;;;;;5.85;1.58;;;24.60;99.90;;;;;;4917707;29;20035;-71
2022/03/17 08:20:05;;;;;;;6.18;1.88;;;24.60;99.90;;;;;;4921509;29;20409;-77
2022/03/17 08:22:34;;;;;;;9.38;1.65;;;24.60;99.90;;;;;;4928686;29;20074;-72
2022/03/17 08:25:03;;;;;;;8.82;1.58;;;24.60;99.90;;;;;;4934728;29;20039;-69
2022/03/17 08:27:42;;;;;;;10.60;2.05;;;24.50;99.90;;;;;;4925457;29;20501;-74
2022/03/17 08:30:11;;;;;;;8.10;1.58;;;24.50;99.90;;;;;;4928476;29;20742;-69
2022/03/17 08:32:44;;;;;;;6.78;1.70;;;24.50;99.90;;;;;;4924111;29;20039;-75
2022/03/17 08:35:17;;;;;;;6.88;1.40;;;24.40;99.90;;;;;;4921932;29;20392;-76
2022/03/17 08:37:51;;;;;;;9.43;1.55;;;24.40;99.90;;;;;;4933825;29;20032;-76
2022/03/17 08:40:25;;;;;;;10.63;2.63;;;24.40;99.90;;;;;;4934158;29;20031;-74
2022/03/17 08:42:54;;;;;;;8.13;2.30;;;24.40;99.90;;;;;;4936967;29;20108;-76
2022/03/17 08:51:01;;;;;;;9.75;2.45;;;24.30;99.90;;;;;;4931945;29;20038;-77
2022/03/17 08:56:40;;;;;;;6.88;1.40;;;24.30;99.90;;;;;;4933981;29;20042;-76
2022/03/17 08:59:10;;;;;;;10.57;1.70;;;24.20;99.90;;;;;;4932759;29;20020;-71
2022/03/17 09:02:14;;;;;;;7.18;1.60;;;24.20;99.90;;;;;;4934170;29;20031;-71
2022/03/17 09:04:42;;;;;;;6.45;1.10;;;24.20;99.90;;;;;;4914296;29;20042;-75
2022/03/17 09:07:09;;;;;;;6.88;1.30;;;24.20;99.90;;;;;;4933489;29;20544;-72
2022/03/17 09:09:45;;;;;;;8.80;1.40;;;24.20;99.90;;;;;;4907807;29;20103;-73
2022/03/17 09:12:13;;;;;;;8.90;1.40;;;24.20;99.90;;;;;;4903103;29;20111;-73
2022/03/17 09:14:41;;;;;;;9.35;2.10;;;24.20;99.90;;;;;;4905449;29;20429;-74
2022/03/17 09:17:09;;;;;;;8.43;1.73;;;24.20;99.90;;;;;;4905409;29;20094;-72
2022/03/17 09:19:44;;;;;;;7.47;1.92;;;24.20;99.90;;;;;;4912479;29;20020;-73
2022/03/17 09:22:11;;;;;;;9.43;1.60;;;24.20;99.90;;;;;;4922181;29;20028;-72
2022/03/17 09:24:43;;;;;;;11.68;3.05;;;24.10;99.90;;;;;;4924777;29;20024;-75
2022/03/17 09:27:14;;;;;;;;;;;24.10;99.90;;;;;;4924926;29;20047;-75
2022/03/17 09:29:49;;;;;;;8.43;1.63;;;24.10;99.90;;;;;;4904938;29;19929;-74
2022/03/17 09:32:32;;;;;;;7.50;1.40;;;24.10;99.90;;;;;;4922814;29;20390;-73
2022/03/17 09:34:59;;;;;;;;;;;24.10;99.90;;;;;;4923743;29;20042;-72
2022/03/17 09:37:44;;;;;;;11.15;1.60;;;24.10;99.90;;;;;;4925121;29;19990;-75
2022/03/17 09:40:14;;;;;;;12.10;3.00;;;24.20;99.90;;;;;;4933240;29;20055;-72
2022/03/17 09:42:42;;;;;;;7.15;1.63;;;24.20;99.90;;;;;;4933524;29;20074;-74
2022/03/17 09:45:12;;;;;;;8.82;1.90;;;24.10;99.90;;;;;;4916668;29;20083;-77
2022/03/17 09:47:46;;;;;;;6.55;1.50;;;24.20;99.90;;;;;;4925713;29;20031;-78
2022/03/17 09:50:17;;;;;;;11.75;2.08;;;24.10;99.90;;;;;;4910819;29;20043;-72
2022/03/17 09:52:47;;;;;;;7.38;1.98;;;24.10;99.90;;;;;;4935708;29;20027;-74
2022/03/17 09:55:15;;;;;;;9.95;2.05;;;24.20;99.90;;;;;;4935576;29;20126;-72
2022/03/17 09:57:43;;;;;;;10.02;1.70;;;24.10;99.90;;;;;;4935463;29;20035;-72
2022/03/17 10:00:12;;;;;;;6.07;1.45;;;24.00;99.90;;;;;;4924773;29;20024;-71
2022/03/17 10:02:40;;;;;;;11.35;2.72;;;24.10;99.90;;;;;;4932851;29;20095;-71
2022/03/17 10:05:11;;;;;;;6.38;2.13;;;24.00;99.90;;;;;;4933231;29;20024;-70
2022/03/17 10:07:39;;;;;;;7.53;1.52;;;24.00;99.90;;;;;;4924919;29;20115;-73
2022/03/17 10:10:08;;;;;;;8.48;1.20;;;24.00;99.90;;;;;;4914353;29;20036;-72
2022/03/17 10:12:35;;;;;;;11.10;1.98;;;24.00;99.90;;;;;;4914600;29;20024;-73
2022/03/17 10:15:03;;;;;;;7.43;1.35;;;24.00;99.90;;;;;;4897918;29;20133;-71
2022/03/17 10:17:32;;;;;;;6.72;1.48;;;24.00;99.90;;;;;;4914534;29;20047;-75
2022/03/17 10:20:34;;;;;;;5.68;1.60;;;24.00;99.90;;;;;;4914651;29;20115;-73
2022/03/17 10:23:02;;;;;;;13.38;2.28;;;23.90;99.90;;;;;;4884008;29;20509;-71
2022/03/17 10:25:32;;;;;;;8.13;1.75;;;23.90;99.90;;;;;;4914563;29;20035;-71
2022/03/17 10:28:01;;;;;;;10.00;2.72;;;23.90;99.90;;;;;;4926766;29;20027;-71
2022/03/17 10:30:34;;;;;;;11.07;2.95;;;23.90;99.90;;;;;;4919180;29;20552;-73
2022/03/17 10:33:06;;;;;;;5.53;1.73;;;24.00;99.90;;;;;;4936234;29;20055;-73
2022/03/17 10:35:36;;;;;;;7.63;1.98;;;23.90;99.90;;;;;;4936600;29;20353;-71
2022/03/17 10:38:16;;;;;;;7.40;2.78;;;23.90;99.90;;;;;;4924969;29;20020;-74
2022/03/17 10:40:59;;;;;;;9.27;2.08;;;23.90;99.90;;;;;;4918061;29;20024;-72
2022/03/17 10:43:29;;;;;;;7.85;1.88;;;23.90;99.90;;;;;;4917809;29;20031;-73
2022/03/17 10:46:11;;;;;;;11.07;2.15;;;23.90;99.90;;;;;;4917723;29;20111;-71
2022/03/17 10:48:52;;;;;;;;;;;23.90;99.90;;;;;;4917859;29;20115;-70
2022/03/17 10:51:40;;;;;;;6.03;1.83;;;23.90;99.90;;;;;;4917860;29;19907;-70
2022/03/17 10:54:15;;;;;;;6.82;1.35;;;23.90;99.90;;;;;;4917767;29;20107;-73
2022/03/17 10:56:56;;;;;;;5.38;1.75;;;23.90;99.90;;;;;;4917055;29;20020;-72
2022/03/17 10:59:35;;;;;;;6.70;1.38;;;23.90;99.90;;;;;;4917264;29;20066;-71
2022/03/17 11:02:04;;;;;;;7.97;1.70;;;23.80;99.90;;;;;;4917421;29;20493;-72
2022/03/17 11:04:33;;;;;;;8.07;2.45;;;23.90;99.90;;;;;;4917021;29;20043;-76
2022/03/17 11:07:00;;;;;;;14.88;2.78;;;23.80;99.90;;;;;;4916567;29;20480;-71
2022/03/17 11:09:28;;;;;;;8.15;1.42;;;23.90;99.90;;;;;;4917255;29;20032;-73
2022/03/17 11:11:56;;;;;;;7.95;1.30;;;23.90;99.90;;;;;;4917504;29;20107;-74
2022/03/17 11:14:24;;;;;;;8.88;2.20;;;23.90;99.90;;;;;;4918011;29;20028;-74
2022/03/17 11:16:55;;;;;;;10.95;1.92;;;23.90;99.90;;;;;;4917073;29;20028;-74
2022/03/17 11:19:24;;;;;;;8.00;2.05;;;23.80;99.90;;;;;;4916730;29;20023;-76
2022/03/17 11:22:10;;;;;;;7.07;1.55;;;23.90;99.90;;;;;;4916866;29;20024;-70
2022/03/17 11:24:39;;;;;;;9.32;1.63;;;23.90;99.90;;;;;;4916828;29;20461;-72
2022/03/17 11:27:16;;;;;;;7.72;1.75;;;23.90;99.90;;;;;;4917067;29;20051;-71
2022/03/17 11:29:49;;;;;;;8.80;2.10;;;23.90;99.90;;;;;;4916785;29;20032;-71
2022/03/17 11:32:31;;;;;;;8.65;1.83;;;23.80;99.90;;;;;;4916633;29;20020;-74
2022/03/17 11:35:18;;;;;;;7.63;2.47;;;23.90;99.90;;;;;;4916782;29;20032;-72
2022/03/17 11:37:46;;;;;;;9.63;1.63;;;23.90;99.90;;;;;;4916589;29;20455;-72
2022/03/17 11:40:19;;;;;;;8.10;1.60;;;23.90;99.90;;;;;;4916132;29;20048;-74
2022/03/17 11:43:10;;;;;;;11.38;2.85;;;23.90;99.90;;;;;;4916547;29;20029;-73
2022/03/17 11:45:40;;;;;;;9.70;1.60;;;23.90;99.90;;;;;;4912104;29;20036;-73
2022/03/17 11:48:12;;;;;;;9.77;1.90;;;23.90;99.90;;;;;;4930524;29;20028;-73
2022/03/17 11:50:44;;;;;;;8.75;1.63;;;23.90;99.90;;;;;;4918689;29;20095;-73
2022/03/17 11:53:39;;;;;;;10.05;3.38;;;23.80;99.90;;;;;;4935828;29;20028;-74
2022/03/17 11:56:09;;;;;;;11.27;3.05;;;23.80;99.90;;;;;;4918438;29;20031;-71
2022/03/17 11:58:47;;;;;;;10.05;2.15;;;23.80;99.90;;;;;;4919690;29;20039;-72
2022/03/17 12:01:28;;;;;;;11.85;2.10;;;23.80;99.90;;;;;;4916405;29;20031;-73
2022/03/17 12:03:59;;;;;;;11.85;1.98;;;23.80;99.90;;;;;;4916377;29;20043;-73
2022/03/17 12:06:29;;;;;;;9.73;2.00;;;23.70;99.90;;;;;;4916481;29;20029;-70
2022/03/17 12:09:00;;;;;;;7.40;1.55;;;23.80;99.90;;;;;;4898955;29;20044;-72
2022/03/17 12:11:31;;;;;;;5.90;1.40;;;23.70;99.90;;;;;;4916315;29;20035;-75
2022/03/17 12:14:46;;;;;;;9.50;2.30;;;23.80;99.90;;;;;;4916485;29;20054;-73
2022/03/17 12:17:08;;;;;;;7.85;1.80;;;23.80;99.90;;;;;;4912922;29;20036;-72
2022/03/17 12:19:41;;;;;;;11.63;2.30;;;23.70;99.90;;;;;;4898856;29;20392;-72
2022/03/17 12:22:14;;;;;;;;;;;23.70;99.90;;;;;;4916278;29;20044;-74
2022/03/17 12:24:48;;;;;;;12.20;2.60;;;23.70;99.90;;;;;;4915922;29;19922;-75
2022/03/17 12:27:35;;;;;;;11.45;2.17;;;23.70;99.90;;;;;;4920815;29;20027;-76
2022/03/17 12:30:17;;;;;;;11.57;2.30;;;23.70;99.90;;;;;;4926982;29;20055;-74
2022/03/17 12:32:49;;;;;;;7.78;2.00;;;23.60;99.90;;;;;;4926194;29;20040;-74
2022/03/17 12:35:18;;;;;;;12.85;2.78;;;23.70;99.90;;;;;;4930196;29;20039;-73
2022/03/17 12:37:46;;;;;;;13.13;2.20;;;23.60;99.90;;;;;;4932190;29;20024;-75
2022/03/17 12:40:16;;;;;;;9.02;2.03;;;23.60;99.90;;;;;;4934401;29;20059;-76
2022/03/17 12:42:45;;;;;;;11.85;2.53;;;23.60;99.90;;;;;;4934202;29;20027;-76
2022/03/17 12:45:18;;;;;;;9.57;2.08;;;23.60;99.90;;;;;;4915822;29;20028;-72
2022/03/17 12:47:47;;;;;;;7.47;1.55;;;23.60;99.90;;;;;;4915378;29;20021;-74
2022/03/17 12:50:20;;;;;;;11.52;1.92;;;23.60;99.90;;;;;;4915307;29;20036;-74
2022/03/17 12:52:49;;;;;;;8.48;1.92;;;23.60;99.90;;;;;;4915237;29;20024;-75
2022/03/17 12:55:18;;;;;;;8.38;1.90;;;23.60;99.90;;;;;;4915527;29;20132;-74
2022/03/17 12:57:47;;;;;;;13.75;2.47;;;23.60;99.90;;;;;;4915260;29;20071;-72
2022/03/17 13:00:17;;;;;;;9.13;2.10;;;23.60;99.90;;;;;;4915421;29;20024;-74
2022/03/17 13:02:54;;;;;;;8.55;1.90;;;23.60;99.90;;;;;;4915197;29;20115;-76
2022/03/17 13:08:09;;;;;;;7.93;1.77;;;23.60;99.90;;;;;;4915377;29;20067;-72
2022/03/17 13:16:09;;;;;;;11.20;2.10;;;23.50;99.90;;;;;;4915909;29;20040;-72
2022/03/17 13:18:47;;;;;;;8.18;1.65;;;23.60;99.90;;;;;;4915395;29;20088;-73
2022/03/17 13:21:19;;;;;;;6.78;1.55;;;23.60;99.90;;;;;;4918279;29;20032;-75
2022/03/17 13:23:46;;;;;;;;;;;23.60;99.90;;;;;;4916498;29;20051;-75
2022/03/17 13:26:19;;;;;;;12.98;2.55;;;23.50;99.90;;;;;;4919362;29;19963;-75
2022/03/17 13:29:00;;;;;;;9.57;2.38;;;23.50;99.90;;;;;;4933818;29;20031;-73
2022/03/17 13:31:41;;;;;;;9.82;2.13;;;23.50;99.90;;;;;;4901779;29;20036;-71
2022/03/17 13:34:09;;;;;;;9.32;1.92;;;23.40;99.90;;;;;;4915013;29;20063;-74
2022/03/17 13:36:53;;;;;;;8.95;2.47;;;23.40;99.90;;;;;;4916709;29;20115;-71